createdAt,value
2022-09-23T00:00:21.391Z,39.23
2022-09-23T00:07:09.410Z,39.48
2022-09-23T00:13:57.546Z,39.85
2022-09-23T00:20:43.144Z,40.09
2022-09-23T00:27:33.950Z,40.28
2022-09-23T00:34:19.667Z,40.47
2022-09-23T00:41:05.587Z,40.06
2022-09-23T00:47:59.392Z,40.18
2022-09-23T00:54:46.264Z,40.51
2022-09-23T01:01:31.990Z,40.36
2022-09-23T01:08:20.362Z,40.58
2022-09-23T01:15:17.932Z,40.53
2022-09-23T01:22:12.761Z,40.62
2022-09-23T01:29:28.731Z,40.99
2022-09-23T01:36:26.459Z,41.24
2022-09-23T01:43:17.808Z,41.07
2022-09-23T01:50:29.511Z,41.21
2022-09-23T01:57:23.882Z,41.32
2022-09-23T02:04:13.929Z,40.98
2022-09-23T02:11:05.822Z,41.22
2022-09-23T02:17:58.879Z,41.15
2022-09-23T02:24:45.150Z,41.12
2022-09-23T02:31:39.608Z,41.55
2022-09-23T02:38:36.163Z,41.55
2022-09-23T03:06:30.733Z,41.39
2022-09-23T03:13:29.354Z,41.45
2022-09-23T03:20:23.381Z,41.46
2022-09-23T03:27:18.895Z,41.64
2022-09-23T03:34:11.161Z,41.50
2022-09-23T03:40:59.617Z,41.67
2022-09-23T03:47:48.976Z,41.66
2022-09-23T03:54:34.424Z,41.72
2022-09-23T04:01:20.117Z,41.77
2022-09-23T04:08:08.967Z,42.01
2022-09-23T04:14:54.641Z,42.26
2022-09-23T04:21:40.039Z,42.19
2022-09-23T04:28:28.619Z,42.28
2022-09-23T04:35:14.055Z,42.02
2022-09-23T04:41:59.702Z,41.89
2022-09-23T04:48:48.490Z,42.11
2022-09-23T04:55:34.588Z,42.40
2022-09-23T05:02:20.126Z,42.52
2022-09-23T05:09:11.015Z,42.69
2022-09-23T05:16:02.073Z,42.73
2022-09-23T05:22:47.709Z,42.59
2022-09-23T05:29:36.309Z,42.93
2022-09-23T05:36:23.161Z,43.04
2022-09-23T05:43:08.541Z,43.01
2022-09-23T05:50:00.148Z,43.46
2022-09-23T05:56:46.202Z,43.73
2022-09-23T06:03:31.742Z,44.05
2022-09-23T06:10:20.275Z,44.31
2022-09-23T06:17:05.678Z,44.28
2022-09-23T06:23:54.404Z,44.37
2022-09-23T06:30:43.791Z,44.67
2022-09-23T06:37:30.671Z,44.78
2022-09-23T06:44:16.328Z,44.96
2022-09-23T06:51:07.818Z,45.34
2022-09-23T06:57:53.219Z,45.36
2022-09-23T07:04:38.879Z,45.21
2022-09-23T07:11:27.027Z,45.65
2022-09-23T07:18:12.536Z,45.80
2022-09-23T07:24:58.661Z,45.95
2022-09-23T07:31:47.207Z,45.90
2022-09-23T07:38:33.124Z,45.68
2022-09-23T07:45:19.357Z,46.04
2022-09-23T07:52:08.162Z,46.64
2022-09-23T07:59:00.415Z,46.49
2022-09-23T08:05:46.633Z,46.76
2022-09-23T08:12:34.609Z,47.06
2022-09-23T08:19:20.593Z,47.00
2022-09-23T08:26:17.794Z,47.00
2022-09-23T08:33:08.029Z,46.95
2022-09-23T08:39:53.585Z,47.00
2022-09-23T08:46:43.754Z,47.33
2022-09-23T08:53:36.605Z,46.90
2022-09-23T09:00:26.285Z,47.26
2022-09-23T09:07:35.824Z,46.92
2022-09-23T09:14:29.537Z,46.62
2022-09-23T09:21:16.774Z,46.39
2022-09-23T09:28:02.903Z,46.10
2022-09-23T09:34:57.020Z,45.74
2022-09-23T09:41:47.500Z,45.57
2022-09-23T09:48:41.151Z,45.55
2022-09-23T09:55:32.976Z,45.29
2022-09-23T10:02:29.961Z,45.17
2022-09-23T10:09:21.828Z,45.18
2022-09-23T10:16:10.270Z,44.50
2022-09-23T10:22:56.724Z,45.06
2022-09-23T10:29:43.732Z,44.13
2022-09-23T10:36:33.923Z,43.91
2022-09-23T10:43:48.759Z,43.67
2022-09-23T10:50:42.191Z,43.96
2022-09-23T10:57:51.061Z,43.55
2022-09-23T11:05:22.488Z,43.31
2022-09-23T11:12:21.285Z,42.77
2022-09-23T11:20:03.691Z,43.24
2022-09-23T11:26:59.851Z,42.56
2022-09-23T11:34:00.512Z,42.24
2022-09-23T11:40:54.905Z,41.79
2022-09-23T11:47:46.853Z,41.96
2022-09-23T11:54:40.266Z,41.59
2022-09-23T12:01:37.911Z,41.76
2022-09-23T12:08:32.430Z,41.51
2022-09-23T12:15:34.545Z,41.33
2022-09-23T12:22:43.772Z,41.35
2022-09-23T12:29:33.338Z,41.11
2022-09-23T12:36:18.805Z,40.81
2022-09-23T12:43:07.066Z,41.28
2022-09-23T12:49:53.226Z,41.07
2022-09-23T12:57:00.238Z,41.05
2022-09-23T13:04:04.691Z,40.72
2022-09-23T13:10:52.522Z,40.37
2022-09-23T13:17:42.466Z,40.58
2022-09-23T13:24:45.076Z,39.79
2022-09-23T13:31:30.864Z,39.60
2022-09-23T13:38:26.239Z,39.55
2022-09-23T13:45:22.036Z,39.00
2022-09-23T13:52:07.637Z,38.73
2022-09-23T13:58:53.284Z,38.77
2022-09-23T14:05:42.254Z,38.28
2022-09-23T14:12:27.807Z,37.81
2022-09-23T14:19:21.029Z,37.68
2022-09-23T14:26:09.062Z,37.21
2022-09-23T14:32:54.713Z,36.70
2022-09-23T14:39:40.114Z,36.93
2022-09-23T14:46:30.365Z,36.94
2022-09-23T14:53:40.424Z,36.90
2022-09-23T15:00:26.436Z,36.48
2022-09-23T15:07:23.242Z,37.06
2022-09-23T15:14:36.226Z,36.44
2022-09-23T15:21:17.879Z,36.64
2022-09-23T15:28:23.682Z,36.52
2022-09-23T15:35:10.242Z,36.40
2022-09-23T15:41:56.246Z,36.47
2022-09-23T15:48:52.341Z,37.08
2022-09-23T15:55:40.597Z,37.01
2022-09-23T16:02:27.354Z,36.63
2022-09-23T16:09:15.603Z,37.12
2022-09-23T16:16:01.075Z,37.19
2022-09-23T16:22:46.887Z,37.39
2022-09-23T16:29:34.901Z,36.92
2022-09-23T16:36:27.008Z,37.58
2022-09-23T16:43:12.378Z,37.57
2022-09-23T16:50:00.360Z,37.58
2022-09-23T16:56:47.282Z,37.96
2022-09-23T17:03:44.515Z,38.04
2022-09-23T17:10:33.054Z,37.95
2022-09-23T17:17:18.486Z,37.91
2022-09-23T17:24:04.843Z,38.42
2022-09-23T17:30:54.715Z,38.43
2022-09-23T17:37:40.311Z,38.45
2022-09-23T17:44:25.950Z,38.65
2022-09-23T17:51:18.831Z,38.83
2022-09-23T17:58:04.810Z,38.29
2022-09-23T18:04:50.269Z,38.53
2022-09-23T18:11:41.590Z,38.78
2022-09-23T18:18:27.064Z,38.44
2022-09-23T18:25:28.778Z,38.72
2022-09-23T18:32:21.157Z,38.79
2022-09-23T18:39:08.070Z,39.54
2022-09-23T18:46:02.188Z,39.23
2022-09-23T18:52:50.244Z,39.34
2022-09-23T18:59:35.628Z,39.48
2022-09-23T19:06:21.982Z,39.86
2022-09-23T19:13:10.028Z,39.78
2022-09-23T19:19:55.648Z,39.70
2022-09-23T19:26:44.407Z,39.78
2022-09-23T19:33:32.394Z,40.29
2022-09-23T19:40:17.983Z,40.40
2022-09-23T19:47:03.458Z,40.16
2022-09-23T19:53:51.613Z,40.53
2022-09-23T20:00:38.189Z,40.46
2022-09-23T20:07:23.624Z,40.51
2022-09-23T20:14:15.233Z,40.99
2022-09-23T20:21:00.612Z,40.84
2022-09-23T20:27:48.072Z,40.65
2022-09-23T20:34:36.037Z,41.22
2022-09-23T20:41:21.496Z,40.88
2022-09-23T20:48:11.326Z,41.32
2022-09-23T20:54:59.965Z,41.37
2022-09-23T21:01:47.587Z,41.24
2022-09-23T21:08:33.951Z,41.64
2022-09-23T21:15:22.939Z,41.57
2022-09-23T21:22:08.873Z,41.85
2022-09-23T21:28:57.839Z,42.18
2022-09-23T21:35:45.810Z,42.17
2022-09-23T21:42:31.220Z,41.86
2022-09-23T21:49:16.803Z,41.86
2022-09-23T21:56:11.003Z,42.17
2022-09-23T22:02:56.450Z,41.98
2022-09-23T22:09:41.870Z,42.52
2022-09-23T22:16:31.014Z,42.31
2022-09-23T22:23:16.663Z,42.46
2022-09-23T22:30:14.525Z,42.18
2022-09-23T22:37:03.833Z,42.82
2022-09-23T22:43:49.200Z,42.34
2022-09-23T22:50:34.573Z,42.27
2022-09-23T22:57:23.065Z,42.61
2022-09-23T23:04:08.840Z,42.37
2022-09-23T23:10:54.970Z,42.51
2022-09-23T23:17:44.040Z,42.42
2022-09-23T23:24:29.712Z,42.53
2022-09-23T23:31:18.249Z,42.95
2022-09-23T23:38:10.969Z,42.67
2022-09-23T23:44:56.355Z,42.98
2022-09-23T23:51:41.732Z,42.90
2022-09-23T23:58:29.748Z,43.06
